createdAt,value
2019-05-11T00:00:49.012Z,85.22
2019-05-11T00:01:49.004Z,85.43
2019-05-11T00:02:48.993Z,85.16
2019-05-11T00:03:48.991Z,84.64
2019-05-11T00:04:48.979Z,85.06
2019-05-11T00:05:48.962Z,84.44
2019-05-11T00:06:48.949Z,84.95
2019-05-11T00:07:48.941Z,85.30
2019-05-11T00:08:48.929Z,85.30
2019-05-11T00:09:57.474Z,85.71
2019-05-11T00:10:49.913Z,85.26
2019-05-11T00:11:48.899Z,85.47
2019-05-11T00:12:48.888Z,85.30
2019-05-11T00:13:48.879Z,85.30
2019-05-11T00:14:48.865Z,85.20
2019-05-11T00:15:48.860Z,85.71
2019-05-11T00:16:48.842Z,85.61
2019-05-11T00:17:48.830Z,85.61
2019-05-11T00:18:48.817Z,85.51
2019-05-11T00:19:48.808Z,85.71
2019-05-11T00:20:48.804Z,85.82
2019-05-11T00:21:48.786Z,85.61
2019-05-11T00:22:48.775Z,85.51
2019-05-11T00:23:48.763Z,85.57
2019-05-11T00:24:48.753Z,85.51
2019-05-11T00:25:48.757Z,85.47
2019-05-11T00:26:48.735Z,85.51
2019-05-11T00:27:48.720Z,85.61
2019-05-11T00:28:48.711Z,85.61
2019-05-11T00:29:48.700Z,85.61
2019-05-11T00:30:48.698Z,85.20
2019-05-11T00:31:48.679Z,85.51
2019-05-11T00:32:48.672Z,85.10
2019-05-11T00:33:48.656Z,85.20
2019-05-11T00:34:48.647Z,84.99
2019-05-11T00:35:48.643Z,84.27
2019-05-11T00:36:48.629Z,84.38
2019-05-11T00:37:48.614Z,84.58
2019-05-11T00:38:48.601Z,84.38
2019-05-11T00:39:48.590Z,83.76
2019-05-11T00:40:48.588Z,83.76
2019-05-11T00:41:48.571Z,84.21
2019-05-11T00:42:48.557Z,83.90
2019-05-11T00:43:48.555Z,84.52
2019-05-11T00:44:48.539Z,84.62
2019-05-11T00:45:48.539Z,84.62
2019-05-11T00:46:48.515Z,84.52
2019-05-11T00:47:48.503Z,84.21
2019-05-11T00:48:48.495Z,85.03
2019-05-11T00:49:48.482Z,85.03
2019-05-11T00:50:48.478Z,84.42
2019-05-11T00:51:48.458Z,84.00
2019-05-11T00:52:48.449Z,84.72
2019-05-11T00:53:48.441Z,84.56
2019-05-11T00:54:48.452Z,84.56
2019-05-11T00:55:48.424Z,84.45
2019-05-11T00:56:48.407Z,84.77
2019-05-11T00:57:48.394Z,85.59
2019-05-11T00:58:50.900Z,85.59
2019-05-11T00:59:48.375Z,84.91
2019-05-11T01:00:48.370Z,85.22
2019-05-11T01:01:48.352Z,85.52
2019-05-11T01:02:48.340Z,84.91
2019-05-11T01:03:48.331Z,85.42
2019-05-11T01:04:48.328Z,85.52
2019-05-11T01:05:48.324Z,85.01
2019-05-11T01:06:48.293Z,85.11
2019-05-11T01:07:48.287Z,85.11
2019-05-11T01:08:48.275Z,84.91
2019-05-11T01:09:48.262Z,85.01
2019-05-11T01:10:48.305Z,85.01
2019-05-11T01:11:48.242Z,85.52
2019-05-11T01:12:48.231Z,85.63
2019-05-11T01:13:48.217Z,85.52
2019-05-11T01:14:48.210Z,85.15
2019-05-11T01:15:48.204Z,85.25
2019-05-11T01:16:48.188Z,85.09
2019-05-11T01:17:48.178Z,85.71
2019-05-11T01:18:48.163Z,85.91
2019-05-11T01:19:48.152Z,86.53
2019-05-11T01:20:48.175Z,86.05
2019-05-11T01:21:48.132Z,86.88
2019-05-11T01:22:48.118Z,87.50
2019-05-11T01:23:48.109Z,87.40
2019-05-11T01:24:48.096Z,87.40
2019-05-11T01:25:48.085Z,87.40
2019-05-11T01:26:48.085Z,87.40
2019-05-11T01:27:48.065Z,86.98
2019-05-11T01:28:48.053Z,86.57
2019-05-11T01:29:48.045Z,86.36
2019-05-11T01:30:48.032Z,86.12
2019-05-11T01:31:48.028Z,85.33
2019-05-11T01:32:48.012Z,85.91
2019-05-11T01:33:48.001Z,85.95
2019-05-11T01:34:47.987Z,85.75
2019-05-11T01:35:50.983Z,85.23
2019-05-11T01:36:47.979Z,85.85
2019-05-11T01:37:47.970Z,85.44
2019-05-11T01:38:47.943Z,85.95
2019-05-11T01:39:47.938Z,85.75
2019-05-11T01:40:58.047Z,85.64
2019-05-11T01:41:48.918Z,85.54
2019-05-11T01:42:47.902Z,85.02
2019-05-11T01:43:47.891Z,85.13
2019-05-11T01:44:47.885Z,85.13
2019-05-11T01:45:47.867Z,85.02
2019-05-11T01:46:47.868Z,85.44
2019-05-11T01:47:47.855Z,85.23
2019-05-11T01:48:47.837Z,85.02
2019-05-11T01:49:47.830Z,85.23
2019-05-11T01:50:47.811Z,84.75
2019-05-11T01:51:47.814Z,84.72
2019-05-11T01:52:47.790Z,84.86
2019-05-11T01:53:48.213Z,84.75
2019-05-11T01:54:47.774Z,84.44
2019-05-11T01:55:47.762Z,84.75
2019-05-11T01:56:47.758Z,84.28
2019-05-11T01:57:47.737Z,84.59
2019-05-11T01:58:47.728Z,84.48
2019-05-11T01:59:47.715Z,85.52
2019-05-11T02:00:47.709Z,85.83
2019-05-11T02:01:47.705Z,85.83
2019-05-11T02:02:47.686Z,85.52
2019-05-11T02:03:47.730Z,85.62
2019-05-11T02:04:47.661Z,85.97
2019-05-11T02:05:51.196Z,85.62
2019-05-11T02:06:47.649Z,86.07
2019-05-11T02:07:47.634Z,85.97
2019-05-11T02:08:47.622Z,86.13
2019-05-11T02:09:47.608Z,85.97
2019-05-11T02:10:47.596Z,85.76
2019-05-11T02:11:47.596Z,84.56
2019-05-11T02:12:47.586Z,85.08
2019-05-11T02:13:47.571Z,84.97
2019-05-11T02:14:47.560Z,85.42
2019-05-11T02:15:47.542Z,86.09
2019-05-11T02:16:47.553Z,86.29
2019-05-11T02:17:47.525Z,87.43
2019-05-11T02:18:47.517Z,87.85
2019-05-11T02:19:47.508Z,87.43
2019-05-11T02:20:47.491Z,87.88
2019-05-11T02:21:47.488Z,87.64
2019-05-11T02:22:47.468Z,87.64
2019-05-11T02:23:47.457Z,87.33
2019-05-11T02:24:47.464Z,87.74
2019-05-11T02:25:47.435Z,87.12
2019-05-11T02:26:47.438Z,87.12
2019-05-11T02:27:47.414Z,86.91
2019-05-11T02:28:47.404Z,86.91
2019-05-11T02:29:47.393Z,86.40
2019-05-11T02:30:47.387Z,87.33
2019-05-11T02:31:47.384Z,87.23
2019-05-11T02:32:47.361Z,87.33
2019-05-11T02:33:47.353Z,87.74
2019-05-11T02:34:47.340Z,87.12
2019-05-11T02:35:47.350Z,86.88
2019-05-11T02:36:47.326Z,86.67
2019-05-11T02:37:47.308Z,86.67
2019-05-11T02:38:47.298Z,86.15
2019-05-11T02:39:47.287Z,86.05
2019-05-11T02:40:47.275Z,86.05
2019-05-11T02:41:47.308Z,85.91
2019-05-11T02:42:47.283Z,85.80
2019-05-11T02:43:47.250Z,85.91
2019-05-11T02:44:47.247Z,85.80
2019-05-11T02:45:47.222Z,85.91
2019-05-11T02:46:47.212Z,85.80
2019-05-11T02:47:47.214Z,85.91
2019-05-11T02:48:47.196Z,85.91
2019-05-11T02:49:47.180Z,86.32
2019-05-11T02:50:47.168Z,85.91
2019-05-11T02:51:47.160Z,85.60
2019-05-11T02:52:47.159Z,85.60
2019-05-11T02:53:47.136Z,86.01
2019-05-11T02:54:47.134Z,86.01
2019-05-11T02:55:47.115Z,85.70
2019-05-11T02:56:47.105Z,85.70
2019-05-11T02:57:47.103Z,85.63
2019-05-11T02:58:47.081Z,85.80
2019-05-11T02:59:47.071Z,85.80
2019-05-11T03:00:47.063Z,85.91
2019-05-11T03:01:47.055Z,86.52
2019-05-11T03:02:47.047Z,86.52
2019-05-11T03:03:47.029Z,85.70
2019-05-11T03:04:47.018Z,85.49
2019-05-11T03:05:47.007Z,85.28
2019-05-11T03:06:47.000Z,85.18
2019-05-11T03:07:47.020Z,85.04
2019-05-11T03:08:46.976Z,84.87
2019-05-11T03:09:46.964Z,84.97
2019-05-11T03:10:46.958Z,84.73
2019-05-11T03:11:55.826Z,84.77
2019-05-11T03:12:47.940Z,84.97
2019-05-11T03:13:46.920Z,85.08
2019-05-11T03:14:46.915Z,84.77
2019-05-11T03:15:46.899Z,84.83
2019-05-11T03:16:46.888Z,84.94
2019-05-11T03:17:46.885Z,84.56
2019-05-11T03:18:46.875Z,84.83
2019-05-11T03:19:46.861Z,84.31
2019-05-11T03:20:46.848Z,84.42
2019-05-11T03:21:46.837Z,84.31
2019-05-11T03:22:46.841Z,84.11
2019-05-11T03:23:46.817Z,84.17
2019-05-11T03:24:46.811Z,84.28
2019-05-11T03:25:46.792Z,84.31
2019-05-11T03:26:46.780Z,84.21
2019-05-11T03:27:46.780Z,84.48
2019-05-11T03:28:46.773Z,84.42
2019-05-11T03:29:46.750Z,84.28
2019-05-11T03:30:46.748Z,84.48
2019-05-11T03:31:46.742Z,84.38
2019-05-11T03:32:46.731Z,84.59
2019-05-11T03:33:46.706Z,83.65
2019-05-11T03:34:46.722Z,83.65
2019-05-11T03:35:46.863Z,84.48
2019-05-11T03:36:46.682Z,84.59
2019-05-11T03:37:46.672Z,84.59
2019-05-11T03:38:46.654Z,83.83
2019-05-11T03:39:46.643Z,83.31
2019-05-11T03:40:46.632Z,82.79
2019-05-11T03:41:46.622Z,82.59
2019-05-11T03:42:46.618Z,83.00
2019-05-11T03:43:46.599Z,82.69
2019-05-11T03:44:46.589Z,82.59
2019-05-11T03:45:46.589Z,82.14
2019-05-11T03:46:46.572Z,81.48
2019-05-11T03:47:46.566Z,80.44
2019-05-11T03:48:46.552Z,80.76
2019-05-11T03:49:46.534Z,80.72
2019-05-11T03:50:46.526Z,79.27
2019-05-11T03:51:46.514Z,78.69
2019-05-11T03:52:46.525Z,78.31
2019-05-11T03:53:46.490Z,78.72
2019-05-11T03:54:46.481Z,79.17
2019-05-11T03:55:46.468Z,79.41
2019-05-11T03:56:46.458Z,81.21
2019-05-11T03:57:46.448Z,82.17
2019-05-11T03:58:46.481Z,82.48
2019-05-11T03:59:46.491Z,83.58
2019-05-11T04:00:46.415Z,82.86
2019-05-11T04:01:46.402Z,83.58
2019-05-11T04:02:46.389Z,82.86
2019-05-11T04:03:46.392Z,82.96
2019-05-11T04:04:46.440Z,82.20
2019-05-11T04:05:46.358Z,82.16
2019-05-11T04:06:46.348Z,80.13
2019-05-11T04:07:46.345Z,79.20
2019-05-11T04:08:46.334Z,79.20
2019-05-11T04:09:46.320Z,79.79
2019-05-11T04:10:46.315Z,80.65
2019-05-11T04:11:46.294Z,81.99
2019-05-11T04:12:46.282Z,82.20
2019-05-11T04:13:46.283Z,82.71
2019-05-11T04:14:46.264Z,83.13
2019-05-11T04:15:46.257Z,83.54
2019-05-11T04:16:46.258Z,83.44
2019-05-11T04:17:46.227Z,83.64
2019-05-11T04:18:46.229Z,84.27
2019-05-11T04:19:46.213Z,84.06
2019-05-11T04:20:46.195Z,84.16
2019-05-11T04:21:46.183Z,84.88
2019-05-11T04:22:46.172Z,85.39
2019-05-11T04:23:46.178Z,85.57
2019-05-11T04:24:46.151Z,85.46
2019-05-11T04:25:46.144Z,85.57
2019-05-11T04:26:46.129Z,85.67
2019-05-11T04:27:46.132Z,85.77
2019-05-11T04:28:46.116Z,85.97
2019-05-11T04:29:46.095Z,86.39
2019-05-11T04:30:46.084Z,86.24
2019-05-11T04:31:46.077Z,85.83
2019-05-11T04:32:46.062Z,87.03
2019-05-11T04:33:46.059Z,86.52
2019-05-11T04:34:46.041Z,86.61
2019-05-11T04:35:46.031Z,86.72
2019-05-11T04:36:46.019Z,86.82
2019-05-11T04:37:46.013Z,86.27
2019-05-11T04:38:46.004Z,86.31
2019-05-11T04:39:45.986Z,85.65
2019-05-11T04:40:45.974Z,86.82
2019-05-11T04:41:45.963Z,86.47
2019-05-11T04:42:54.833Z,86.27
2019-05-11T04:43:46.949Z,86.27
2019-05-11T04:44:45.931Z,86.43
2019-05-11T04:45:45.919Z,86.95
2019-05-11T04:46:45.907Z,87.15
2019-05-11T04:47:45.899Z,86.85
2019-05-11T04:48:45.898Z,86.95
2019-05-11T04:49:45.876Z,87.15
2019-05-11T04:50:45.867Z,87.63
2019-05-11T04:51:45.853Z,87.94
2019-05-11T04:52:45.845Z,87.73
2019-05-11T04:53:45.846Z,87.90
2019-05-11T04:54:45.820Z,88.20
2019-05-11T04:55:45.811Z,88.10
2019-05-11T04:56:45.805Z,87.28
2019-05-11T04:57:45.790Z,88.00
2019-05-11T04:58:45.793Z,87.24
2019-05-11T04:59:45.770Z,87.04
2019-05-11T05:00:45.763Z,87.04
2019-05-11T05:01:45.756Z,86.72
2019-05-11T05:02:46.122Z,86.93
2019-05-11T05:03:47.538Z,87.55
2019-05-11T05:04:46.711Z,87.55
2019-05-11T05:05:45.706Z,88.17
2019-05-11T05:06:59.028Z,87.96
2019-05-11T05:07:48.988Z,87.92
2019-05-11T05:08:45.668Z,87.20
2019-05-11T05:09:45.725Z,86.89
2019-05-11T05:10:45.650Z,86.79
2019-05-11T05:11:45.642Z,86.33
2019-05-11T05:12:50.769Z,86.13
2019-05-11T05:13:46.614Z,85.78
2019-05-11T05:14:45.614Z,85.47
2019-05-11T05:15:45.592Z,85.95
2019-05-11T05:16:45.583Z,83.51
2019-05-11T05:17:45.571Z,81.52
2019-05-11T05:18:45.575Z,81.12
2019-05-11T05:19:45.562Z,80.12
2019-05-11T05:20:45.538Z,79.78
2019-05-11T05:21:45.530Z,78.82
2019-05-11T05:22:45.517Z,76.84
2019-05-11T05:23:45.507Z,74.90
2019-05-11T05:24:45.505Z,74.35
2019-05-11T05:25:45.483Z,74.18
2019-05-11T05:26:45.474Z,70.58
2019-05-11T05:27:45.462Z,69.70
2019-05-11T05:28:45.971Z,66.97
2019-05-11T05:29:45.449Z,64.37
2019-05-11T05:30:45.431Z,63.20
2019-05-11T05:31:45.418Z,62.35
2019-05-11T05:32:45.409Z,61.19
2019-05-11T05:33:45.397Z,60.55
2019-05-11T05:34:45.398Z,59.18
2019-05-11T05:35:45.376Z,58.87
2019-05-11T05:36:45.369Z,58.75
2019-05-11T05:37:45.358Z,56.90
2019-05-11T05:38:45.346Z,55.79
2019-05-11T05:39:45.341Z,55.57
2019-05-11T05:40:45.329Z,56.92
2019-05-11T05:41:56.493Z,55.44
2019-05-11T05:42:46.299Z,56.32
2019-05-11T05:43:45.289Z,56.98
2019-05-11T05:44:45.288Z,57.82
2019-05-11T05:45:45.269Z,57.89
2019-05-11T05:46:45.259Z,57.09
2019-05-11T05:47:45.251Z,57.49
2019-05-11T05:48:45.240Z,59.09
2019-05-11T05:49:45.238Z,60.63
2019-05-11T05:50:45.216Z,60.53
2019-05-11T05:51:45.205Z,59.01
2019-05-11T05:52:45.194Z,60.39
2019-05-11T05:53:45.196Z,60.66
2019-05-11T05:54:45.185Z,58.65
2019-05-11T05:55:45.163Z,58.43
2019-05-11T05:56:45.156Z,57.64
2019-05-11T05:57:45.143Z,55.99
2019-05-11T05:58:45.131Z,57.06
2019-05-11T05:59:45.129Z,57.92
2019-05-11T06:00:45.120Z,58.71
2019-05-11T06:01:45.100Z,60.77
2019-05-11T06:02:45.266Z,61.60
2019-05-11T06:03:45.083Z,62.54
2019-05-11T06:04:45.078Z,62.14
2019-05-11T06:05:45.063Z,62.14
2019-05-11T06:06:45.047Z,61.83
2019-05-11T06:07:45.037Z,61.13
2019-05-11T06:08:45.025Z,61.80
2019-05-11T06:09:45.024Z,62.18
2019-05-11T06:10:45.003Z,60.58
2019-05-11T06:11:45.000Z,58.78
2019-05-11T06:12:44.996Z,56.75
2019-05-11T06:13:46.010Z,52.26
2019-05-11T06:14:44.994Z,53.32
2019-05-11T06:15:44.950Z,52.29
2019-05-11T06:16:44.941Z,50.81
2019-05-11T06:17:44.940Z,52.04
2019-05-11T06:18:44.920Z,52.47
2019-05-11T06:19:44.910Z,52.06
2019-05-11T06:20:44.908Z,51.46
2019-05-11T06:21:44.888Z,52.26
2019-05-11T06:22:44.881Z,51.06
2019-05-11T06:23:44.869Z,50.25
2019-05-11T06:24:44.858Z,50.63
2019-05-11T06:25:44.857Z,50.98
2019-05-11T06:26:44.855Z,50.63
2019-05-11T06:27:44.828Z,48.30
2019-05-11T06:28:44.818Z,48.70
2019-05-11T06:29:44.807Z,47.35
2019-05-11T06:30:44.808Z,45.57
2019-05-11T06:31:44.788Z,47.80
2019-05-11T06:32:44.777Z,48.32
2019-05-11T06:33:44.766Z,47.52
2019-05-11T06:34:44.757Z,48.44
2019-05-11T06:35:44.768Z,48.77
2019-05-11T06:36:44.737Z,49.18
2019-05-11T06:37:44.733Z,48.29
2019-05-11T06:38:44.720Z,48.57
2019-05-11T06:39:44.705Z,46.44
2019-05-11T06:40:44.705Z,46.72
2019-05-11T06:41:44.685Z,47.74
2019-05-11T06:42:44.675Z,47.77
2019-05-11T06:44:00.480Z,44.32
2019-05-11T06:44:45.659Z,43.06
2019-05-11T06:45:44.652Z,43.56
2019-05-11T06:46:44.634Z,44.82
2019-05-11T06:47:44.623Z,41.60
2019-05-11T06:48:44.615Z,42.11
2019-05-11T06:49:44.606Z,42.16
2019-05-11T06:50:44.603Z,41.39
2019-05-11T06:51:44.583Z,41.96
2019-05-11T06:52:44.573Z,41.41
2019-05-11T06:53:44.563Z,41.49
2019-05-11T06:54:44.553Z,41.07
2019-05-11T06:55:44.552Z,41.96
2019-05-11T06:56:44.534Z,39.03
2019-05-11T06:57:44.525Z,40.79
2019-05-11T06:58:45.554Z,40.07
2019-05-11T06:59:44.499Z,39.67
2019-05-11T07:00:44.499Z,38.15
2019-05-11T07:01:44.478Z,37.85
2019-05-11T07:02:44.468Z,39.49
2019-05-11T07:03:44.456Z,39.47
2019-05-11T07:04:44.447Z,39.67
2019-05-11T07:05:44.444Z,38.77
2019-05-11T07:06:44.426Z,40.06
2019-05-11T07:07:47.685Z,41.49
2019-05-11T07:08:44.402Z,42.07
2019-05-11T07:09:44.394Z,42.47
2019-05-11T07:10:44.391Z,41.77
2019-05-11T07:11:44.374Z,42.07
2019-05-11T07:12:44.361Z,42.32
2019-05-11T07:13:44.351Z,44.23
2019-05-11T07:14:44.342Z,43.16
2019-05-11T07:15:44.340Z,45.32
2019-05-11T07:16:44.319Z,46.42
2019-05-11T07:17:44.311Z,46.80
2019-05-11T07:18:44.298Z,45.72
2019-05-11T07:19:47.379Z,47.96
2019-05-11T07:20:50.500Z,48.18
2019-05-11T07:21:45.263Z,46.75
2019-05-11T07:22:44.258Z,47.86
2019-05-11T07:23:44.243Z,46.25
2019-05-11T07:24:44.235Z,48.36
2019-05-11T07:25:44.237Z,48.24
2019-05-11T07:26:44.211Z,48.99
2019-05-11T07:27:44.200Z,48.53
2019-05-11T07:28:44.192Z,50.07
2019-05-11T07:29:44.178Z,50.92
2019-05-11T07:30:44.181Z,51.61
2019-05-11T07:31:44.156Z,52.51
2019-05-11T07:32:44.146Z,52.54
2019-05-11T07:33:44.136Z,50.92
2019-05-11T07:34:44.124Z,52.67
2019-05-11T07:35:44.115Z,52.67
2019-05-11T07:36:44.113Z,53.65
2019-05-11T07:37:44.093Z,50.92
2019-05-11T07:38:44.082Z,51.25
2019-05-11T07:39:44.072Z,53.50
2019-05-11T07:40:44.060Z,52.48
2019-05-11T07:41:44.059Z,52.94
2019-05-11T07:42:44.039Z,52.11
2019-05-11T07:43:44.027Z,51.07
2019-05-11T07:44:44.016Z,52.89
2019-05-11T07:45:44.006Z,53.38
2019-05-11T07:46:44.011Z,52.54
2019-05-11T07:47:43.985Z,51.23
2019-05-11T07:48:43.974Z,52.34
2019-05-11T07:49:43.961Z,51.03
2019-05-11T07:50:43.955Z,52.14
2019-05-11T07:51:43.948Z,52.31
2019-05-11T07:52:43.929Z,50.27
2019-05-11T07:53:43.919Z,50.85
2019-05-11T07:54:43.911Z,54.38
2019-05-11T07:55:43.897Z,51.13
2019-05-11T07:56:43.899Z,53.22
2019-05-11T07:57:43.875Z,51.68
2019-05-11T07:58:43.863Z,49.19
2019-05-11T07:59:43.854Z,50.02
2019-05-11T08:00:43.843Z,52.06
2019-05-11T08:01:43.842Z,50.02
2019-05-11T08:02:43.823Z,50.24
2019-05-11T08:03:43.810Z,52.16
2019-05-11T08:04:43.801Z,48.43
2019-05-11T08:05:43.788Z,49.18
2019-05-11T08:06:43.786Z,50.39
2019-05-11T08:07:43.767Z,52.59
2019-05-11T08:08:43.757Z,51.56
2019-05-11T08:09:43.747Z,50.93
2019-05-11T08:10:43.734Z,50.55
2019-05-11T08:11:43.733Z,50.42
2019-05-11T08:12:43.713Z,48.43
2019-05-11T08:13:43.704Z,50.93
2019-05-11T08:14:56.267Z,51.03
2019-05-11T08:15:44.678Z,48.91
2019-05-11T08:16:43.678Z,47.07
2019-05-11T08:17:43.662Z,50.12
2019-05-11T08:18:43.647Z,48.02
2019-05-11T08:19:43.639Z,47.04
2019-05-11T08:20:43.627Z,46.53
2019-05-11T08:21:43.624Z,45.95
2019-05-11T08:22:43.606Z,46.98
2019-05-11T08:23:43.594Z,48.90
2019-05-11T08:24:43.587Z,52.72
2019-05-11T08:25:43.577Z,47.67
2019-05-11T08:26:43.571Z,46.45
2019-05-11T08:27:43.550Z,47.16
2019-05-11T08:28:43.545Z,47.24
2019-05-11T08:29:43.529Z,46.25
2019-05-11T08:30:43.519Z,45.14
2019-05-11T08:31:43.538Z,45.87
2019-05-11T08:32:43.497Z,47.20
2019-05-11T08:33:43.485Z,45.59
2019-05-11T08:34:43.479Z,48.60
2019-05-11T08:35:43.462Z,48.98
2019-05-11T08:36:43.455Z,45.95
2019-05-11T08:37:43.452Z,47.16
2019-05-11T08:38:43.434Z,45.04
2019-05-11T08:39:43.419Z,45.77
2019-05-11T08:40:43.408Z,46.07
2019-05-11T08:41:43.398Z,47.28
2019-05-11T08:42:43.400Z,47.59
2019-05-11T08:43:43.375Z,48.39
2019-05-11T08:44:43.363Z,47.36
2019-05-11T08:45:43.355Z,48.02
2019-05-11T08:46:43.342Z,46.31
2019-05-11T08:47:43.338Z,47.30
2019-05-11T08:48:43.320Z,47.17
2019-05-11T08:49:43.309Z,45.56
2019-05-11T08:50:43.298Z,46.95
2019-05-11T08:51:43.288Z,47.13
2019-05-11T08:52:43.285Z,45.50
2019-05-11T08:53:43.266Z,45.07
2019-05-11T08:54:43.257Z,47.63
2019-05-11T08:55:43.244Z,43.71
2019-05-11T08:56:43.232Z,44.13
2019-05-11T08:57:43.230Z,44.17
2019-05-11T08:58:43.211Z,46.84
2019-05-11T08:59:43.199Z,47.56
2019-05-11T09:00:43.191Z,48.25
2019-05-11T09:01:44.755Z,47.14
2019-05-11T09:02:46.656Z,46.41
2019-05-11T09:03:44.154Z,47.22
2019-05-11T09:04:43.150Z,48.21
2019-05-11T09:05:43.159Z,44.27
2019-05-11T09:06:43.124Z,45.36
2019-05-11T09:07:43.121Z,43.74
2019-05-11T09:08:43.102Z,44.45
2019-05-11T09:09:43.104Z,45.14
2019-05-11T09:10:43.080Z,44.83
2019-05-11T09:11:43.069Z,45.32
2019-05-11T09:12:43.067Z,45.59
2019-05-11T09:13:43.047Z,43.26
2019-05-11T09:14:43.044Z,43.87
2019-05-11T09:15:43.024Z,43.99
2019-05-11T09:16:43.014Z,44.17
2019-05-11T09:17:43.013Z,46.31
2019-05-11T09:18:42.994Z,47.12
2019-05-11T09:19:42.980Z,43.48
2019-05-11T09:20:42.970Z,48.05
2019-05-11T09:21:42.958Z,46.11
2019-05-11T09:22:42.958Z,46.37
2019-05-11T09:23:42.938Z,43.82
2019-05-11T09:24:42.931Z,44.93
2019-05-11T09:25:42.916Z,45.36
2019-05-11T09:26:42.905Z,45.50
2019-05-11T09:27:43.527Z,46.61
2019-05-11T09:28:42.886Z,43.99
2019-05-11T09:29:42.877Z,44.31
2019-05-11T09:30:42.861Z,44.92
2019-05-11T09:31:42.858Z,47.64
2019-05-11T09:32:42.849Z,49.13
2019-05-11T09:33:42.830Z,48.10
2019-05-11T09:34:42.817Z,43.54
2019-05-11T09:35:49.897Z,45.36
2019-05-11T09:36:43.795Z,44.17
2019-05-11T09:37:42.818Z,47.90
2019-05-11T09:38:42.776Z,45.36
2019-05-11T09:39:42.764Z,43.06
2019-05-11T09:40:42.753Z,44.37
2019-05-11T09:41:42.746Z,44.25
2019-05-11T09:42:42.736Z,44.15
2019-05-11T09:43:42.730Z,46.55
2019-05-11T09:44:42.709Z,46.65
2019-05-11T09:45:48.297Z,45.54
2019-05-11T09:46:43.687Z,44.02
2019-05-11T09:47:42.682Z,43.95
2019-05-11T09:48:42.676Z,44.07
2019-05-11T09:49:47.457Z,44.90
2019-05-11T09:50:43.643Z,46.01
2019-05-11T09:51:42.635Z,46.61
2019-05-11T09:52:42.632Z,48.10
2019-05-11T09:53:42.630Z,45.16
2019-05-11T09:54:42.602Z,44.15
2019-05-11T09:55:42.595Z,43.66
2019-05-11T09:56:42.581Z,47.12
2019-05-11T09:57:42.572Z,45.89
2019-05-11T09:58:42.567Z,46.59
2019-05-11T09:59:42.549Z,46.09
2019-05-11T10:00:42.537Z,47.58
2019-05-11T10:01:42.528Z,44.45
2019-05-11T10:02:42.515Z,44.37
2019-05-11T10:03:42.514Z,45.00
2019-05-11T10:04:42.494Z,46.23
2019-05-11T10:05:42.483Z,46.64
2019-05-11T10:06:42.474Z,46.43
2019-05-11T10:07:42.461Z,47.24
2019-05-11T10:08:42.461Z,45.62
2019-05-11T10:09:42.439Z,46.73
2019-05-11T10:10:42.431Z,45.70
2019-05-11T10:11:42.421Z,45.30
2019-05-11T10:12:42.408Z,45.90
2019-05-11T10:13:42.404Z,43.69
2019-05-11T10:14:42.385Z,44.87
2019-05-11T10:15:42.374Z,47.30
2019-05-11T10:16:42.368Z,47.07
2019-05-11T10:17:42.352Z,45.54
2019-05-11T10:18:42.350Z,45.34
2019-05-11T10:19:42.332Z,45.01
2019-05-11T10:20:42.321Z,45.12
2019-05-11T10:21:42.312Z,44.11
2019-05-11T10:22:42.298Z,44.02
2019-05-11T10:23:42.707Z,43.59
2019-05-11T10:24:42.278Z,45.32
2019-05-11T10:25:42.265Z,45.75
2019-05-11T10:26:42.261Z,48.45
2019-05-11T10:27:42.244Z,47.95
2019-05-11T10:28:42.244Z,47.62
2019-05-11T10:29:42.224Z,46.94
2019-05-11T10:30:42.211Z,48.65
2019-05-11T10:31:42.201Z,48.63
2019-05-11T10:32:42.190Z,46.41
2019-05-11T10:33:42.194Z,45.62
2019-05-11T10:34:42.169Z,46.66
2019-05-11T10:35:42.157Z,46.56
2019-05-11T10:36:42.147Z,48.19
2019-05-11T10:37:42.136Z,47.36
2019-05-11T10:38:42.139Z,47.16
2019-05-11T10:39:42.115Z,47.67
2019-05-11T10:40:42.105Z,48.27
2019-05-11T10:41:42.092Z,47.54
2019-05-11T10:42:42.082Z,45.75
2019-05-11T10:43:42.078Z,46.45
2019-05-11T10:44:42.060Z,47.39
2019-05-11T10:45:42.053Z,46.36
2019-05-11T10:46:42.038Z,48.78
2019-05-11T10:47:42.027Z,47.26
2019-05-11T10:48:42.026Z,49.08
2019-05-11T10:49:42.011Z,45.95
2019-05-11T10:50:41.995Z,47.77
2019-05-11T10:51:41.992Z,45.83
2019-05-11T10:52:41.973Z,45.73
2019-05-11T10:53:41.971Z,46.84
2019-05-11T10:54:41.991Z,45.93
2019-05-11T10:55:41.942Z,46.94
2019-05-11T10:56:41.932Z,47.04
2019-05-11T10:57:41.919Z,46.43
2019-05-11T10:58:41.952Z,46.33
2019-05-11T10:59:41.897Z,45.93
2019-05-11T11:00:41.889Z,47.24
2019-05-11T11:01:41.879Z,46.84
2019-05-11T11:02:41.866Z,48.15
2019-05-11T11:03:41.853Z,48.25
2019-05-11T11:04:41.851Z,46.84
2019-05-11T11:05:41.834Z,46.43
2019-05-11T11:06:41.821Z,46.64
2019-05-11T11:07:41.811Z,48.07
2019-05-11T11:08:41.802Z,46.36
2019-05-11T11:09:41.803Z,47.16
2019-05-11T11:10:41.781Z,48.30
2019-05-11T11:11:41.771Z,47.99
2019-05-11T11:12:41.755Z,48.10
2019-05-11T11:13:41.747Z,48.60
2019-05-11T11:14:41.745Z,47.59
2019-05-11T11:15:41.723Z,47.71
2019-05-11T11:16:42.939Z,48.22
2019-05-11T11:17:41.702Z,47.89
2019-05-11T11:18:41.696Z,49.01
2019-05-11T11:19:41.688Z,48.70
2019-05-11T11:20:41.669Z,49.01
2019-05-11T11:21:41.659Z,49.10
2019-05-11T11:22:44.283Z,48.68
2019-05-11T11:23:41.636Z,48.98
2019-05-11T11:24:41.634Z,48.37
2019-05-11T11:25:41.614Z,47.67
2019-05-11T11:26:41.606Z,48.68
2019-05-11T11:27:41.591Z,48.68
2019-05-11T11:28:41.583Z,48.75
2019-05-11T11:29:41.583Z,49.05
2019-05-11T11:30:41.560Z,47.12
2019-05-11T11:31:41.550Z,46.36
2019-05-11T11:32:41.538Z,46.58
2019-05-11T11:33:41.526Z,48.19
2019-05-11T11:34:41.525Z,47.91
2019-05-11T11:35:41.508Z,49.21
2019-05-11T11:36:41.496Z,50.82
2019-05-11T11:37:41.483Z,51.23
2019-05-11T11:38:41.470Z,49.10
2019-05-11T11:39:41.469Z,48.60
2019-05-11T11:40:42.917Z,49.41
2019-05-11T11:41:41.438Z,50.32
2019-05-11T11:42:41.426Z,48.19
2019-05-11T11:43:41.415Z,48.50
2019-05-11T11:44:41.414Z,48.50
2019-05-11T11:45:41.393Z,48.50
2019-05-11T11:46:54.242Z,48.68
2019-05-11T11:47:42.409Z,50.09
2019-05-11T11:48:41.363Z,48.65
2019-05-11T11:49:41.358Z,47.85
2019-05-11T11:50:41.338Z,49.05
2019-05-11T11:51:41.328Z,48.27
2019-05-11T11:52:41.318Z,47.67
2019-05-11T11:53:41.305Z,47.69
2019-05-11T11:54:41.313Z,48.19
2019-05-11T11:55:41.283Z,49.21
2019-05-11T11:56:41.272Z,47.91
2019-05-11T11:57:41.261Z,47.69
2019-05-11T11:58:41.254Z,49.10
2019-05-11T11:59:41.246Z,48.27
2019-05-11T12:00:41.239Z,49.08
2019-05-11T12:01:41.222Z,50.16
2019-05-11T12:02:41.208Z,47.95
2019-05-11T12:03:41.195Z,49.05
2019-05-11T12:04:41.194Z,48.05
2019-05-11T12:05:41.183Z,47.64
2019-05-11T12:06:41.162Z,48.98
2019-05-11T12:07:41.153Z,48.27
2019-05-11T12:08:41.142Z,48.07
2019-05-11T12:09:41.138Z,48.27
2019-05-11T12:10:41.129Z,48.98
2019-05-11T12:11:41.109Z,47.16
2019-05-11T12:12:41.097Z,48.37
2019-05-11T12:13:41.087Z,48.88
2019-05-11T12:14:41.075Z,47.87
2019-05-11T12:15:41.073Z,47.97
2019-05-11T12:16:41.054Z,48.47
2019-05-11T12:17:41.045Z,48.88
2019-05-11T12:18:41.031Z,47.14
2019-05-11T12:19:41.020Z,46.73
2019-05-11T12:20:41.019Z,47.67
2019-05-11T12:21:41.003Z,47.06
2019-05-11T12:22:40.988Z,47.59
2019-05-11T12:23:40.976Z,47.89
2019-05-11T12:24:40.970Z,48.80
2019-05-11T12:25:40.961Z,49.51
2019-05-11T12:26:40.944Z,49.01
2019-05-11T12:27:40.930Z,48.60
2019-05-11T12:28:40.922Z,50.12
2019-05-11T12:29:40.909Z,50.21
2019-05-11T12:30:40.905Z,48.60
2019-05-11T12:31:40.886Z,50.09
2019-05-11T12:32:40.877Z,48.27
2019-05-11T12:33:40.865Z,49.61
2019-05-11T12:34:40.860Z,48.90
2019-05-11T12:35:40.852Z,48.50
2019-05-11T12:36:40.831Z,50.62
2019-05-11T12:37:40.821Z,48.82
2019-05-11T12:38:40.810Z,48.93
2019-05-11T12:39:40.802Z,48.93
2019-05-11T12:40:40.798Z,49.55
2019-05-11T12:41:40.776Z,49.13
2019-05-11T12:42:40.768Z,50.84
2019-05-11T12:43:40.754Z,51.86
2019-05-11T12:44:40.744Z,49.55
2019-05-11T12:45:40.745Z,51.07
2019-05-11T12:46:40.722Z,50.18
2019-05-11T12:47:40.710Z,50.77
2019-05-11T12:48:40.699Z,52.41
2019-05-11T12:49:40.689Z,51.12
2019-05-11T12:50:40.690Z,52.64
2019-05-11T12:51:40.666Z,52.64
2019-05-11T12:52:40.656Z,52.92